| Date | Time | Temp. (oF) | Dew Point (oF) | Rel. Hum. (%) | Press. (in.) | Wind Dir. | Wind Speed (mph) | Hourly Rainfall (in.) |
|
|---|---|---|---|---|---|---|---|---|---|
| 1 | 08/19 | 00:00 | 71 | 66 | 85 | 29.94 | W | 1 | 0.00 |
| 2 | 08/18 | 23:00 | 73 | 67 | 83 | 29.95 | WSW | 0 | 0.00 |
| 3 | 08/18 | 22:00 | 76 | 67 | 74 | 29.96 | SSE | 0 | 0.00 |
| 4 | 08/18 | 21:00 | 78 | 66 | 69 | 29.96 | SW | 0 | 0.00 |
| 5 | 08/18 | 20:00 | 79 | 65 | 63 | 29.97 | SSW | 2 | 0.00 |
| 6 | 08/18 | 19:00 | 81 | 65 | 59 | 29.96 | SSW | 2 | 0.00 |
| 7 | 08/18 | 18:00 | 83 | 65 | 56 | 29.95 | SSE | 6 | 0.00 |
| 8 | 08/18 | 17:00 | 85 | 63 | 49 | 29.93 | SW | 7 | 0.00 |
| 9 | 08/18 | 16:00 | 85 | 64 | 50 | 29.95 | SSE | 2 | 0.00 |
| 10 | 08/18 | 15:00 | 85 | 64 | 51 | 29.98 | SE | 5 | 0.00 |
| 11 | 08/18 | 14:00 | 84 | 66 | 56 | 30.01 | SSE | 7 | 0.00 |
| 12 | 08/18 | 13:00 | 84 | 64 | 52 | 30.02 | ESE | 2 | 0.00 |
| 13 | 08/18 | 12:00 | 84 | 64 | 53 | 30.05 | SSE | 3 | 0.00 |
| 14 | 08/18 | 11:00 | 81 | 64 | 58 | 30.05 | SW | 4 | 0.00 |
| 15 | 08/18 | 10:00 | 76 | 64 | 68 | 30.05 | W | 4 | 0.00 |
| 16 | 08/18 | 09:00 | 72 | 63 | 76 | 30.05 | SSW | 2 | 0.00 |
| 17 | 08/18 | 08:00 | 67 | 64 | 91 | 30.06 | SSE | 0 | 0.00 |
| 18 | 08/18 | 07:00 | 65 | 63 | 94 | 30.05 | SSE | 0 | 0.00 |
| 19 | 08/18 | 06:00 | 64 | 62 | 95 | 30.05 | ESE | 0 | 0.00 |
| 20 | 08/18 | 05:00 | 65 | 62 | 91 | 30.05 | NNW | 0 | 0.00 |
| 21 | 08/18 | 04:00 | 66 | 62 | 90 | 30.04 | SSW | 0 | 0.00 |
| 22 | 08/18 | 03:00 | 67 | 62 | 86 | 30.04 | SW | 0 | 0.00 |
| 23 | 08/18 | 02:00 | 69 | 63 | 84 | 30.04 | SSE | 1 | 0.00 |
| 24 | 08/18 | 01:00 | 71 | 61 | 73 | 30.04 | WNW | 1 | 0.00 |